Time;durP1;ratioP1;P1;durP2;ratioP2;P2;SDS_P1;SDS_P2;PMS_P1;PMS_P2;Temp;Humidity;BMP_temperature;BMP_pressure;BME280_temperature;BME280_humidity;BME280_pressure;Samples;Min_cycle;Max_cycle;Signal;HPM_P1;HPM_P2
2021/08/22 00:01:14;;;;;;;1.67;1.10;;;22.70;61.10;;;;;;5076015;28;20526;-36
2021/08/22 00:03:40;;;;;;;1.07;1.00;;;22.80;61.80;;;;;;5070241;28;20071;-36
2021/08/22 00:06:06;;;;;;;0.98;0.90;;;22.80;65.30;;;;;;5071199;28;20487;-36
2021/08/22 00:08:35;;;;;;;1.10;1.00;;;22.80;64.70;;;;;;5071453;28;20050;-36
2021/08/22 00:11:02;;;;;;;1.02;0.93;;;22.80;63.70;;;;;;5068450;28;20043;-36
2021/08/22 00:13:30;;;;;;;1.88;0.73;;;22.80;63.60;;;;;;5067522;28;20033;-36
2021/08/22 00:15:56;;;;;;;0.80;0.80;;;22.80;62.70;;;;;;5073429;28;20024;-36
2021/08/22 00:18:22;;;;;;;0.80;0.80;;;22.70;61.90;;;;;;5068311;28;20033;-36
2021/08/22 00:20:48;;;;;;;2.08;0.80;;;22.70;61.10;;;;;;5073789;28;20057;-36
2021/08/22 00:23:14;;;;;;;0.85;0.85;;;22.70;63.30;;;;;;5053544;28;20036;-36
2021/08/22 00:25:40;;;;;;;1.17;1.08;;;22.70;65.00;;;;;;5075675;28;20025;-36
2021/08/22 00:28:06;;;;;;;1.17;0.90;;;22.80;66.30;;;;;;5072396;28;20059;-36
2021/08/22 00:30:33;;;;;;;1.10;1.00;;;22.80;64.90;;;;;;5073468;28;20120;-36
2021/08/22 00:33:00;;;;;;;0.90;0.90;;;22.80;65.30;;;;;;5079913;28;20114;-36
2021/08/22 00:35:26;;;;;;;1.00;0.90;;;22.70;64.70;;;;;;5073447;28;20126;-36
2021/08/22 00:37:53;;;;;;;0.75;0.75;;;22.70;64.30;;;;;;5074734;28;20277;-36
2021/08/22 00:40:19;;;;;;;1.05;0.90;;;22.70;63.00;;;;;;5073137;28;20046;-36
2021/08/22 00:42:48;;;;;;;1.45;0.82;;;22.70;62.10;;;;;;5076683;28;20024;-37
2021/08/22 00:45:15;;;;;;;1.20;1.10;;;22.70;63.10;;;;;;5077991;28;20090;-36
2021/08/22 00:47:47;;;;;;;1.37;1.07;;;22.70;65.30;;;;;;5081524;28;20098;-36
2021/08/22 00:50:22;;;;;;;1.20;1.10;;;22.70;66.60;;;;;;5070161;28;20036;-37
2021/08/22 00:52:50;;;;;;;0.93;0.85;;;22.80;64.80;;;;;;5073080;28;20092;-36
2021/08/22 00:55:17;;;;;;;1.30;0.90;;;22.70;65.00;;;;;;5073183;28;20024;-36
2021/08/22 00:57:43;;;;;;;1.45;1.00;;;22.70;64.70;;;;;;5072134;28;20029;-36
2021/08/22 01:00:13;;;;;;;0.77;0.73;;;22.70;62.80;;;;;;5074501;28;20599;-36
2021/08/22 01:03:13;;;;;;;0.70;0.70;;;22.70;62.40;;;;;;5059758;28;20086;-36
2021/08/22 01:06:07;;;;;;;0.80;0.80;;;22.70;62.20;;;;;;5079017;28;20055;-36
2021/08/22 01:08:39;;;;;;;1.23;1.13;;;22.70;66.80;;;;;;5077766;28;20116;-36
2021/08/22 01:11:14;;;;;;;1.15;1.05;;;22.70;66.80;;;;;;5053193;28;20028;-36
2021/08/22 01:13:43;;;;;;;1.15;0.82;;;22.70;65.50;;;;;;5049850;28;20094;-36
2021/08/22 01:16:09;;;;;;;0.80;0.80;;;22.70;66.00;;;;;;5049047;28;20128;-36
2021/08/22 01:18:37;;;;;;;1.20;1.10;;;22.70;65.30;;;;;;5059181;28;20081;-36
2021/08/22 01:21:14;;;;;;;0.85;0.80;;;22.70;64.90;;;;;;5055029;28;20036;-36
2021/08/22 01:23:57;;;;;;;0.70;0.70;;;22.70;61.90;;;;;;5040818;28;20032;-36
2021/08/22 01:26:27;;;;;;;0.88;0.88;;;22.70;61.90;;;;;;5076367;28;20043;-36
2021/08/22 01:28:53;;;;;;;0.98;0.80;;;22.70;63.50;;;;;;5063591;28;20097;-36
2021/08/22 01:31:23;;;;;;;1.20;1.10;;;22.70;65.90;;;;;;5058993;28;20029;-37
2021/08/22 01:33:51;;;;;;;0.82;0.73;;;22.70;65.20;;;;;;5077724;28;20041;-37
2021/08/22 01:36:19;;;;;;;0.85;0.73;;;22.70;64.40;;;;;;5077359;28;20086;-36
2021/08/22 01:38:45;;;;;;;0.95;0.80;;;22.70;63.30;;;;;;5057802;28;20041;-36
2021/08/22 01:41:11;;;;;;;1.00;0.90;;;22.70;63.20;;;;;;5055499;28;20021;-36
2021/08/22 01:43:37;;;;;;;0.88;0.88;;;22.70;62.10;;;;;;5045863;28;20037;-36
2021/08/22 01:46:06;;;;;;;1.00;0.80;;;22.60;63.10;;;;;;5069942;28;20074;-36
2021/08/22 01:48:33;;;;;;;0.98;0.82;;;22.70;65.30;;;;;;5076266;28;20096;-36
2021/08/22 01:50:59;;;;;;;0.90;0.85;;;22.70;66.10;;;;;;5046596;28;20135;-36
2021/08/22 01:53:29;;;;;;;1.23;1.13;;;22.70;65.00;;;;;;5078880;28;20048;-36
2021/08/22 01:55:57;;;;;;;1.00;0.90;;;22.70;64.80;;;;;;5060347;28;20116;-36
2021/08/22 01:58:24;;;;;;;1.05;0.95;;;22.70;64.30;;;;;;5070046;28;20047;-36
2021/08/22 02:00:51;;;;;;;1.20;1.10;;;22.60;63.70;;;;;;5065742;28;20025;-36
2021/08/22 02:03:34;;;;;;;0.90;0.90;;;22.70;62.60;;;;;;5073885;28;20029;-36
2021/08/22 02:06:16;;;;;;;0.80;0.80;;;22.60;63.00;;;;;;5056726;28;20025;-36
2021/08/22 02:08:42;;;;;;;1.23;1.08;;;22.60;64.90;;;;;;5049026;28;20041;-36
2021/08/22 02:11:25;;;;;;;1.10;1.00;;;22.60;65.00;;;;;;5072808;28;20021;-36
2021/08/22 02:13:54;;;;;;;1.10;1.00;;;22.60;63.80;;;;;;5054531;28;20075;-36
2021/08/22 02:16:26;;;;;;;0.73;0.73;;;22.70;63.10;;;;;;5057554;28;20025;-37
2021/08/22 02:18:52;;;;;;;1.10;1.00;;;22.70;63.30;;;;;;5071302;28;20067;-36
2021/08/22 02:21:20;;;;;;;1.02;0.77;;;22.60;62.70;;;;;;5052102;28;20024;-36
2021/08/22 02:23:48;;;;;;;0.93;0.80;;;22.60;61.40;;;;;;5050250;28;20039;-36
2021/08/22 02:26:14;;;;;;;0.77;0.77;;;22.70;62.30;;;;;;5037100;28;20028;-36
2021/08/22 02:28:40;;;;;;;0.85;0.85;;;22.60;63.10;;;;;;5077060;28;20033;-36
2021/08/22 02:31:07;;;;;;;1.48;1.38;;;22.60;64.10;;;;;;5074071;28;20024;-36
2021/08/22 02:33:33;;;;;;;1.10;1.00;;;22.60;63.20;;;;;;5043045;28;20052;-36
2021/08/22 02:35:59;;;;;;;1.30;1.20;;;22.70;63.20;;;;;;5067132;28;20115;-36
2021/08/22 02:38:25;;;;;;;0.80;0.80;;;22.70;63.00;;;;;;5079921;28;20068;-36
2021/08/22 02:40:52;;;;;;;1.00;0.82;;;22.70;63.30;;;;;;5072946;28;20636;-35
2021/08/22 02:43:18;;;;;;;1.00;0.90;;;22.70;63.40;;;;;;5072028;28;20033;-36
2021/08/22 02:45:44;;;;;;;1.38;1.10;;;22.70;63.20;;;;;;5068331;28;20024;-36
2021/08/22 02:48:10;;;;;;;1.38;1.02;;;22.70;63.70;;;;;;5076762;28;20032;-36
2021/08/22 02:50:36;;;;;;;1.40;0.85;;;22.70;63.00;;;;;;5068251;28;20067;-36
2021/08/22 02:53:06;;;;;;;1.20;1.00;;;22.70;62.00;;;;;;5068251;28;20040;-36
2021/08/22 02:55:32;;;;;;;1.20;0.90;;;22.70;61.50;;;;;;5079079;28;20552;-36
2021/08/22 02:57:59;;;;;;;1.40;1.10;;;22.70;61.90;;;;;;5055565;28;20036;-36
2021/08/22 03:00:25;;;;;;;2.05;1.23;;;22.70;63.30;;;;;;5074058;28;20032;-36
2021/08/22 03:02:51;;;;;;;0.90;0.90;;;22.70;64.10;;;;;;5063834;28;20025;-36
2021/08/22 03:05:17;;;;;;;1.27;1.08;;;22.80;63.30;;;;;;5080182;28;20029;-36
2021/08/22 03:07:43;;;;;;;1.45;1.15;;;22.70;63.60;;;;;;5069094;28;20037;-36
2021/08/22 03:10:10;;;;;;;1.20;1.10;;;22.80;63.00;;;;;;5064565;28;20738;-36
2021/08/22 03:12:36;;;;;;;1.27;0.90;;;22.80;63.30;;;;;;5072050;28;20064;-36
2021/08/22 03:15:04;;;;;;;0.88;0.85;;;22.80;64.30;;;;;;5073297;28;20099;-35
2021/08/22 03:17:30;;;;;;;1.48;1.30;;;22.80;64.90;;;;;;5075847;28;20033;-35
2021/08/22 03:19:56;;;;;;;1.00;0.90;;;22.80;64.60;;;;;;5075686;28;20021;-36
2021/08/22 03:22:23;;;;;;;1.13;1.02;;;22.80;63.90;;;;;;5075193;28;20025;-36
2021/08/22 03:24:50;;;;;;;1.27;1.10;;;22.80;64.10;;;;;;5067766;28;20044;-36
2021/08/22 03:27:16;;;;;;;0.93;0.93;;;22.80;64.20;;;;;;5073631;28;20333;-36
2021/08/22 03:29:42;;;;;;;1.75;0.98;;;22.80;64.10;;;;;;5075164;28;20029;-36
2021/08/22 03:32:08;;;;;;;1.23;1.13;;;22.80;64.50;;;;;;5067882;28;20059;-37
2021/08/22 03:34:34;;;;;;;0.98;0.90;;;22.90;64.60;;;;;;5076002;28;20082;-36
2021/08/22 03:37:00;;;;;;;1.10;1.00;;;22.90;64.80;;;;;;5075342;28;20136;-36
2021/08/22 03:39:27;;;;;;;1.90;1.38;;;22.90;65.10;;;;;;5075447;28;20040;-35
2021/08/22 03:41:53;;;;;;;1.13;1.02;;;22.90;65.80;;;;;;5075189;28;20054;-36
2021/08/22 03:44:19;;;;;;;1.15;1.05;;;22.90;66.20;;;;;;5068400;28;20021;-37
2021/08/22 03:46:45;;;;;;;1.20;1.10;;;22.90;66.30;;;;;;5072297;28;20060;-36
2021/08/22 03:49:11;;;;;;;1.33;1.23;;;23.00;66.80;;;;;;5069014;28;20040;-36
2021/08/22 03:51:37;;;;;;;1.33;1.23;;;23.00;66.70;;;;;;5068402;28;20040;-36
2021/08/22 03:54:04;;;;;;;1.50;1.40;;;23.00;66.70;;;;;;5059483;28;20082;-36
2021/08/22 03:56:30;;;;;;;1.15;1.00;;;23.00;66.80;;;;;;5064719;28;20046;-36
2021/08/22 03:58:57;;;;;;;1.42;1.10;;;23.00;66.80;;;;;;5071329;28;20043;-36
2021/08/22 04:01:23;;;;;;;1.38;1.27;;;23.00;66.70;;;;;;5072424;28;20096;-36
2021/08/22 04:03:50;;;;;;;1.20;1.10;;;23.00;66.80;;;;;;5072731;28;20032;-37
2021/08/22 04:06:16;;;;;;;;;;;23.00;66.80;;;;;;5079053;28;20024;-41
2021/08/22 04:08:42;;;;;;;1.20;0.88;;;23.00;66.90;;;;;;5058816;28;20480;-36
2021/08/22 04:11:09;;;;;;;1.25;1.15;;;23.10;66.70;;;;;;5078163;28;20024;-37
2021/08/22 04:13:35;;;;;;;1.80;1.08;;;23.10;66.50;;;;;;5050306;28;20622;-36
2021/08/22 04:16:02;;;;;;;1.10;1.00;;;23.10;66.60;;;;;;5081648;28;20037;-36
2021/08/22 04:18:28;;;;;;;1.30;0.90;;;23.10;66.40;;;;;;5083208;28;20032;-37
2021/08/22 04:20:54;;;;;;;1.40;1.23;;;23.10;66.30;;;;;;5076318;28;20436;-36
2021/08/22 04:23:20;;;;;;;2.13;1.10;;;23.10;66.20;;;;;;5057232;28;20525;-36
2021/08/22 04:25:46;;;;;;;1.17;1.08;;;23.10;66.20;;;;;;5076718;28;20060;-37
2021/08/22 04:28:13;;;;;;;1.30;1.05;;;23.10;66.20;;;;;;5077452;28;20143;-36
2021/08/22 04:30:39;;;;;;;1.40;1.30;;;23.10;66.10;;;;;;5074461;28;20028;-36
2021/08/22 04:33:05;;;;;;;1.10;1.00;;;23.10;66.00;;;;;;5064958;28;20134;-36
2021/08/22 04:35:31;;;;;;;1.08;0.98;;;23.20;66.00;;;;;;5079088;28;20036;-37
2021/08/22 04:37:57;;;;;;;1.13;1.02;;;23.20;65.90;;;;;;5073810;28;20041;-36
2021/08/22 04:40:24;;;;;;;1.17;1.07;;;23.20;65.80;;;;;;5075971;28;20043;-36
2021/08/22 04:42:50;;;;;;;1.40;1.27;;;23.20;65.70;;;;;;5075254;28;20038;-36
2021/08/22 04:45:16;;;;;;;1.30;1.20;;;23.20;65.70;;;;;;5074271;28;20077;-37
2021/08/22 04:47:43;;;;;;;1.10;1.00;;;23.20;65.70;;;;;;5082477;28;20040;-36
2021/08/22 04:50:09;;;;;;;1.65;1.40;;;23.20;65.70;;;;;;5082901;28;20025;-37
2021/08/22 04:52:35;;;;;;;1.27;1.15;;;23.20;65.70;;;;;;5079380;28;20052;-36
2021/08/22 04:55:04;;;;;;;1.27;1.17;;;23.20;65.60;;;;;;5082551;28;20130;-36
2021/08/22 04:57:30;;;;;;;1.50;1.20;;;23.20;65.60;;;;;;5074596;28;20032;-36
2021/08/22 04:59:56;;;;;;;1.23;1.13;;;23.20;65.60;;;;;;5082529;28;20036;-36
2021/08/22 05:02:22;;;;;;;1.40;1.20;;;23.20;65.60;;;;;;5082430;28;20097;-36
2021/08/22 05:04:48;;;;;;;1.45;1.20;;;23.20;65.60;;;;;;5082759;28;20020;-36
2021/08/22 05:07:15;;;;;;;1.25;1.13;;;23.20;65.60;;;;;;5078305;28;20028;-36
2021/08/22 05:09:41;;;;;;;1.13;1.02;;;23.20;65.70;;;;;;5069100;28;20025;-36
2021/08/22 05:12:07;;;;;;;1.23;1.13;;;23.20;65.50;;;;;;5065693;28;20036;-36
2021/08/22 05:14:34;;;;;;;1.67;1.30;;;23.20;65.50;;;;;;5074088;28;20035;-40
2021/08/22 05:17:03;;;;;;;1.33;1.23;;;23.20;65.50;;;;;;5080861;28;20063;-36
2021/08/22 05:19:29;;;;;;;1.33;1.23;;;23.30;65.50;;;;;;5076852;28;20067;-36
2021/08/22 05:21:55;;;;;;;1.40;1.30;;;23.30;65.40;;;;;;5076243;28;20027;-36
2021/08/22 05:24:21;;;;;;;1.35;1.25;;;23.30;65.40;;;;;;5077715;28;20509;-36
2021/08/22 05:26:47;;;;;;;1.45;1.27;;;23.30;65.30;;;;;;5078351;28;20037;-36
2021/08/22 05:29:14;;;;;;;1.27;1.17;;;23.30;65.30;;;;;;5075144;28;20035;-36
2021/08/22 05:31:40;;;;;;;1.75;1.25;;;23.30;65.30;;;;;;5079655;28;20054;-36
2021/08/22 05:34:06;;;;;;;1.35;1.25;;;23.30;65.30;;;;;;5080338;28;20036;-36
2021/08/22 05:36:37;;;;;;;1.10;1.00;;;23.30;65.20;;;;;;5082157;28;20092;-36
2021/08/22 05:39:03;;;;;;;1.30;1.20;;;23.30;65.20;;;;;;5081177;28;20036;-36
2021/08/22 05:41:29;;;;;;;1.43;1.20;;;23.30;65.10;;;;;;5073198;28;20050;-36
2021/08/22 05:43:55;;;;;;;1.30;1.20;;;23.30;65.20;;;;;;5074336;28;20040;-36
2021/08/22 05:46:22;;;;;;;1.23;1.13;;;23.30;65.20;;;;;;5070969;28;20115;-36
2021/08/22 05:48:48;;;;;;;1.15;1.00;;;23.30;65.90;;;;;;5074910;28;20127;-35
2021/08/22 05:51:19;;;;;;;1.08;1.00;;;23.30;65.20;;;;;;5077155;28;20045;-36
2021/08/22 05:53:45;;;;;;;1.85;1.75;;;23.30;65.20;;;;;;5081246;28;20041;-36
2021/08/22 05:56:11;;;;;;;1.90;1.42;;;23.30;65.10;;;;;;5080826;28;20139;-36
2021/08/22 05:58:37;;;;;;;1.40;1.20;;;23.30;65.10;;;;;;5077405;28;20039;-36
2021/08/22 06:01:04;;;;;;;1.20;1.10;;;23.30;65.00;;;;;;5074130;28;20039;-36
2021/08/22 06:03:30;;;;;;;1.20;1.10;;;23.30;65.00;;;;;;5072471;28;20028;-36
2021/08/22 06:05:57;;;;;;;1.40;1.30;;;23.30;65.00;;;;;;5081570;28;20040;-36
2021/08/22 06:08:23;;;;;;;1.23;1.13;;;23.30;65.00;;;;;;5079299;28;20025;-37
2021/08/22 06:10:49;;;;;;;1.33;1.23;;;23.30;65.00;;;;;;5080972;28;20076;-36
2021/08/22 06:13:15;;;;;;;1.50;0.98;;;23.30;64.90;;;;;;5076801;28;20040;-36
2021/08/22 06:15:41;;;;;;;1.30;1.20;;;23.30;64.90;;;;;;5074482;28;20029;-36
2021/08/22 06:18:07;;;;;;;1.30;1.20;;;23.30;64.90;;;;;;5073762;28;20028;-36
2021/08/22 06:20:34;;;;;;;1.20;1.10;;;23.30;64.80;;;;;;5076904;28;20029;-36
2021/08/22 06:23:00;;;;;;;1.27;1.17;;;23.30;65.60;;;;;;5065918;28;20071;-36
2021/08/22 06:25:26;;;;;;;1.27;1.15;;;23.40;65.00;;;;;;5080561;28;20020;-36
2021/08/22 06:27:52;;;;;;;1.40;1.30;;;23.40;65.00;;;;;;5080250;28;20055;-36
2021/08/22 06:30:18;;;;;;;1.30;1.10;;;23.40;65.00;;;;;;5064378;28;20021;-36
2021/08/22 06:32:44;;;;;;;1.48;1.10;;;23.40;64.90;;;;;;5069428;28;20072;-36
2021/08/22 06:35:11;;;;;;;1.30;1.20;;;23.40;64.90;;;;;;5074548;28;20694;-36
2021/08/22 06:37:38;;;;;;;1.77;1.20;;;23.40;64.90;;;;;;5080876;28;20035;-37
2021/08/22 06:40:05;;;;;;;1.40;1.30;;;23.40;65.00;;;;;;5076546;28;20132;-36
2021/08/22 06:42:31;;;;;;;1.35;1.25;;;23.40;65.00;;;;;;5080574;28;20062;-36
2021/08/22 06:44:57;;;;;;;1.30;1.20;;;23.40;64.90;;;;;;5070479;28;20036;-37
2021/08/22 06:47:24;;;;;;;1.40;1.30;;;23.40;64.90;;;;;;5076133;28;20025;-36
2021/08/22 06:49:50;;;;;;;1.20;1.10;;;23.40;64.90;;;;;;5079921;28;20058;-37
2021/08/22 06:52:17;;;;;;;1.20;1.10;;;23.40;64.90;;;;;;5075970;28;20140;-36
2021/08/22 06:54:43;;;;;;;1.30;1.20;;;23.40;64.90;;;;;;5054403;28;20029;-37
2021/08/22 06:57:11;;;;;;;1.30;1.20;;;23.40;64.90;;;;;;5076060;28;20024;-36
2021/08/22 06:59:38;;;;;;;1.50;1.33;;;23.40;64.90;;;;;;5065816;28;20093;-36
2021/08/22 07:02:05;;;;;;;1.45;1.33;;;23.40;64.90;;;;;;5074911;28;20110;-36
2021/08/22 07:04:31;;;;;;;1.10;1.00;;;23.40;64.80;;;;;;5074879;28;20039;-36
2021/08/22 07:06:57;;;;;;;1.30;1.20;;;23.40;64.90;;;;;;5069812;28;20062;-36
2021/08/22 07:09:23;;;;;;;1.40;1.30;;;23.40;64.90;;;;;;5075716;28;20494;-36
2021/08/22 07:11:49;;;;;;;1.25;1.15;;;23.40;64.90;;;;;;5072908;28;20046;-36
2021/08/22 07:14:16;;;;;;;1.73;1.30;;;23.40;64.90;;;;;;5080424;28;20044;-36
2021/08/22 07:16:42;;;;;;;1.40;1.30;;;23.40;64.90;;;;;;5074007;28;20025;-36
2021/08/22 07:19:08;;;;;;;1.85;1.40;;;23.40;64.90;;;;;;5071725;28;20043;-36
2021/08/22 07:21:35;;;;;;;1.70;1.60;;;23.40;64.90;;;;;;5076051;28;20105;-36
2021/08/22 07:24:01;;;;;;;1.40;1.20;;;23.40;64.90;;;;;;5078689;28;20043;-36
2021/08/22 07:26:27;;;;;;;1.35;1.23;;;23.40;64.90;;;;;;5072740;28;20036;-36
2021/08/22 07:28:54;;;;;;;1.50;1.40;;;23.40;64.90;;;;;;5072932;28;20075;-36
2021/08/22 07:31:20;;;;;;;1.60;1.50;;;23.40;64.90;;;;;;5079312;28;20035;-37
2021/08/22 07:33:47;;;;;;;1.50;1.40;;;23.40;64.90;;;;;;5073545;28;20147;-36
2021/08/22 07:36:13;;;;;;;1.30;1.20;;;23.40;64.90;;;;;;5072873;28;20067;-36
2021/08/22 07:38:39;;;;;;;1.30;1.20;;;23.40;64.90;;;;;;5074009;28;20024;-36
2021/08/22 07:41:06;;;;;;;1.38;1.27;;;23.50;64.90;;;;;;5082865;28;20096;-36
2021/08/22 07:43:32;;;;;;;1.40;1.20;;;23.40;64.90;;;;;;5083833;28;20028;-36
2021/08/22 07:45:58;;;;;;;1.13;1.02;;;23.50;65.00;;;;;;5079952;28;20025;-37
2021/08/22 07:48:25;;;;;;;1.50;1.40;;;23.40;65.00;;;;;;5079979;28;20783;-36
2021/08/22 07:50:51;;;;;;;1.40;1.30;;;23.40;64.90;;;;;;5077351;28;20056;-36
2021/08/22 07:53:18;;;;;;;1.17;1.08;;;23.50;65.00;;;;;;5074488;28;20096;-36
2021/08/22 07:55:44;;;;;;;1.38;1.27;;;23.50;65.00;;;;;;5074154;28;20497;-37
2021/08/22 07:58:10;;;;;;;1.70;1.60;;;23.50;65.10;;;;;;5079397;28;20033;-36
2021/08/22 08:00:36;;;;;;;1.38;1.27;;;23.50;65.00;;;;;;5070890;28;20032;-36
2021/08/22 08:03:03;;;;;;;1.35;1.25;;;23.50;64.50;;;;;;5076282;28;20469;-37
2021/08/22 08:05:29;;;;;;;1.70;1.60;;;23.50;63.70;;;;;;5072734;28;20021;-37
2021/08/22 08:07:55;;;;;;;1.33;1.20;;;23.40;63.20;;;;;;5074255;28;20033;-36
2021/08/22 08:10:22;;;;;;;1.45;1.30;;;23.40;63.30;;;;;;5079856;28;20031;-36
2021/08/22 08:12:48;;;;;;;1.65;1.40;;;23.40;63.30;;;;;;5074553;28;20036;-36
2021/08/22 08:15:14;;;;;;;1.33;1.23;;;23.40;63.50;;;;;;5077317;28;20058;-36
2021/08/22 08:17:40;;;;;;;2.53;1.60;;;23.40;63.80;;;;;;5083340;28;20021;-36
2021/08/22 08:20:07;;;;;;;1.83;1.52;;;23.40;64.20;;;;;;5081853;28;20560;-36
2021/08/22 08:22:33;;;;;;;2.22;1.38;;;23.40;64.30;;;;;;5082753;28;20031;-36
2021/08/22 08:24:59;;;;;;;1.38;1.27;;;23.40;64.50;;;;;;5079310;28;20040;-36
2021/08/22 08:27:25;;;;;;;1.77;1.40;;;23.40;64.60;;;;;;5079066;28;20084;-36
2021/08/22 08:29:51;;;;;;;1.75;1.60;;;23.40;64.70;;;;;;5078959;28;20032;-36
2021/08/22 08:32:18;;;;;;;1.60;1.50;;;23.40;64.80;;;;;;5079291;28;20032;-36
2021/08/22 08:34:44;;;;;;;1.35;1.25;;;23.40;64.80;;;;;;5078880;28;20025;-36
2021/08/22 08:37:10;;;;;;;1.63;1.45;;;23.40;64.90;;;;;;5057334;28;20013;-37
2021/08/22 08:39:36;;;;;;;1.38;1.27;;;23.40;64.90;;;;;;5072828;28;20056;-36
2021/08/22 08:42:21;;;;;;;2.97;1.42;;;23.40;64.90;;;;;;5071091;28;20033;-37
2021/08/22 08:44:48;;;;;;;1.38;1.27;;;23.40;65.00;;;;;;5069814;28;20029;-36
2021/08/22 08:47:24;;;;;;;1.70;1.48;;;23.40;64.90;;;;;;5081274;28;20020;-35
2021/08/22 08:49:59;;;;;;;1.52;1.40;;;23.40;64.90;;;;;;5071680;28;20044;-36
2021/08/22 08:52:46;;;;;;;1.50;1.40;;;23.40;65.70;;;;;;5078262;28;20081;-38
2021/08/22 08:55:43;;;;;;;1.33;1.23;;;23.40;64.90;;;;;;5078556;28;20039;-36
2021/08/22 08:58:09;;;;;;;1.42;1.30;;;23.40;64.90;;;;;;5073696;28;20667;-37
2021/08/22 09:00:42;;;;;;;1.80;1.58;;;23.40;64.90;;;;;;5080504;28;20037;-37
2021/08/22 09:03:08;;;;;;;1.40;1.30;;;23.40;64.90;;;;;;5078586;28;20103;-36
2021/08/22 09:06:09;;;;;;;1.83;1.48;;;23.40;64.90;;;;;;5077341;28;20040;-36
2021/08/22 09:08:42;;;;;;;1.98;1.60;;;23.40;65.00;;;;;;5062638;28;20542;-36
2021/08/22 09:11:32;;;;;;;1.27;1.15;;;23.40;65.00;;;;;;5078497;28;20503;-36
2021/08/22 09:14:39;;;;;;;1.60;1.50;;;23.40;65.00;;;;;;5077355;28;20040;-37
2021/08/22 09:17:33;;;;;;;1.45;1.35;;;23.40;65.20;;;;;;5067007;28;20033;-36
2021/08/22 09:20:37;;;;;;;1.58;1.48;;;23.40;65.20;;;;;;5078304;28;20116;-36
2021/08/22 09:23:34;;;;;;;1.90;1.60;;;23.40;65.20;;;;;;5077655;28;20032;-36
2021/08/22 09:26:37;;;;;;;1.70;1.55;;;23.40;65.30;;;;;;5074099;28;20516;-36
2021/08/22 09:29:41;;;;;;;1.50;1.40;;;23.40;65.30;;;;;;5084364;28;20065;-36
2021/08/22 09:32:56;;;;;;;1.58;1.40;;;23.50;65.30;;;;;;5084018;28;20033;-36
2021/08/22 09:35:44;;;;;;;1.60;1.50;;;23.50;65.30;;;;;;5083745;28;20100;-36
2021/08/22 09:38:19;;;;;;;1.85;1.67;;;23.50;65.30;;;;;;5065847;28;20678;-36
2021/08/22 09:41:24;;;;;;;1.50;1.40;;;23.50;65.30;;;;;;5083869;28;20039;-36
2021/08/22 09:44:15;;;;;;;1.65;1.52;;;23.50;65.30;;;;;;5083561;28;20467;-35
2021/08/22 09:47:13;;;;;;;1.80;1.52;;;23.50;65.30;;;;;;5065297;28;20033;-36
2021/08/22 09:50:07;;;;;;;2.72;1.30;;;23.50;65.30;;;;;;5063846;28;20031;-36
2021/08/22 09:52:39;;;;;;;1.30;1.20;;;23.50;64.40;;;;;;5081903;28;20056;-36
2021/08/22 09:55:36;;;;;;;1.50;1.40;;;23.50;63.90;;;;;;5083399;28;20078;-36
2021/08/22 09:58:30;;;;;;;1.60;1.50;;;23.50;63.40;;;;;;5083717;28;20111;-36
2021/08/22 10:01:11;;;;;;;1.67;1.58;;;23.50;63.60;;;;;;5083312;28;20054;-36
2021/08/22 10:04:14;;;;;;;1.60;1.50;;;23.40;64.40;;;;;;5083163;28;20097;-36
2021/08/22 10:06:55;;;;;;;2.08;1.42;;;23.40;64.80;;;;;;5083396;28;20029;-36
2021/08/22 10:09:26;;;;;;;1.70;1.60;;;23.40;64.90;;;;;;5083401;28;20032;-36
2021/08/22 10:11:56;;;;;;;1.67;1.55;;;23.40;65.00;;;;;;5083319;28;20031;-36
2021/08/22 10:14:26;;;;;;;1.50;1.40;;;23.40;65.00;;;;;;5082823;28;20059;-36
2021/08/22 10:16:55;;;;;;;1.70;1.55;;;23.40;64.90;;;;;;5083315;28;20034;-36
2021/08/22 10:19:25;;;;;;;1.63;1.30;;;23.40;64.80;;;;;;5083326;28;20055;-36
2021/08/22 10:22:17;;;;;;;1.63;1.52;;;23.40;64.80;;;;;;5065263;28;20043;-37
2021/08/22 10:24:54;;;;;;;1.52;1.42;;;23.40;64.80;;;;;;5082584;28;20095;-36
2021/08/22 10:30:02;;;;;;;1.75;1.48;;;23.40;65.00;;;;;;5083199;28;20025;-36
2021/08/22 10:32:34;;;;;;;1.67;1.58;;;23.40;65.00;;;;;;5083014;28;20028;-36
2021/08/22 10:35:14;;;;;;;1.58;1.48;;;23.40;65.00;;;;;;5082846;28;20037;-36
2021/08/22 10:37:41;;;;;;;1.95;1.75;;;23.40;65.00;;;;;;5083099;28;20024;-36
2021/08/22 10:40:28;;;;;;;1.95;1.65;;;23.40;65.10;;;;;;5082319;28;20020;-36
2021/08/22 10:43:07;;;;;;;1.60;1.50;;;23.40;65.10;;;;;;5082735;28;20102;-36
2021/08/22 10:45:46;;;;;;;1.35;1.25;;;23.40;65.10;;;;;;5075004;28;20034;-36
2021/08/22 10:48:12;;;;;;;1.58;1.45;;;23.40;65.20;;;;;;5064745;28;20122;-36
2021/08/22 10:51:09;;;;;;;1.65;1.50;;;23.40;65.10;;;;;;5063699;28;20063;-36
2021/08/22 10:53:44;;;;;;;1.92;1.50;;;23.40;65.10;;;;;;5081124;28;20052;-36
2021/08/22 10:56:23;;;;;;;1.55;1.35;;;23.40;65.00;;;;;;5070725;28;20025;-36
2021/08/22 10:59:10;;;;;;;1.63;1.40;;;23.40;65.00;;;;;;5074791;28;20064;-36
2021/08/22 11:01:40;;;;;;;1.63;1.52;;;23.50;65.10;;;;;;5080900;28;20025;-36
2021/08/22 11:04:07;;;;;;;1.30;1.20;;;23.50;65.10;;;;;;5055930;28;20030;-36
2021/08/22 11:06:57;;;;;;;1.52;1.25;;;23.40;64.70;;;;;;5082155;28;20028;-36
2021/08/22 11:09:40;;;;;;;1.48;1.38;;;23.50;64.00;;;;;;5081844;28;20032;-36
2021/08/22 11:12:21;;;;;;;1.50;1.40;;;23.40;63.40;;;;;;5082521;28;20036;-36
2021/08/22 11:14:47;;;;;;;1.65;1.40;;;23.40;63.50;;;;;;5074067;28;20120;-36
2021/08/22 11:17:13;;;;;;;1.65;1.55;;;23.40;64.20;;;;;;5082108;28;20035;-36
2021/08/22 11:19:40;;;;;;;1.60;1.50;;;23.40;64.70;;;;;;5082379;28;20036;-36
2021/08/22 11:22:28;;;;;;;1.50;1.40;;;23.40;64.90;;;;;;5082367;28;20093;-36
2021/08/22 11:24:58;;;;;;;1.70;1.50;;;23.40;64.90;;;;;;5064200;28;20031;-37
2021/08/22 11:27:26;;;;;;;1.85;1.58;;;23.40;64.90;;;;;;5082057;28;20028;-36
2021/08/22 11:30:06;;;;;;;1.63;1.40;;;23.40;64.90;;;;;;5063935;28;20028;-36
2021/08/22 11:32:32;;;;;;;2.17;1.70;;;23.40;64.90;;;;;;5082212;28;20036;-36
2021/08/22 11:35:13;;;;;;;1.60;1.35;;;23.40;65.50;;;;;;5064084;28;20066;-36
2021/08/22 11:37:40;;;;;;;1.58;1.48;;;23.40;64.80;;;;;;5082281;28;20025;-37
2021/08/22 11:40:07;;;;;;;;;;;23.40;64.80;;;;;;5082484;28;20409;-36
2021/08/22 11:42:33;;;;;;;1.80;1.50;;;23.40;64.80;;;;;;5082326;28;19908;-36
2021/08/22 11:45:10;;;;;;;1.33;1.23;;;23.40;65.00;;;;;;5063947;28;20464;-36
2021/08/22 11:47:37;;;;;;;1.83;1.48;;;23.40;65.00;;;;;;5080807;28;20029;-36
2021/08/22 11:50:06;;;;;;;1.65;1.30;;;23.40;65.00;;;;;;5082131;28;20060;-36
2021/08/22 11:52:36;;;;;;;1.63;1.40;;;23.40;65.10;;;;;;5042892;28;20102;-36
2021/08/22 11:55:06;;;;;;;1.42;1.30;;;23.40;65.10;;;;;;5032615;28;20509;-35
2021/08/22 11:57:32;;;;;;;1.40;1.30;;;23.40;65.10;;;;;;5060561;28;20359;-36
2021/08/22 12:00:05;;;;;;;1.48;1.30;;;23.40;65.10;;;;;;5055304;28;20056;-36
2021/08/22 12:02:31;;;;;;;1.45;1.35;;;23.40;65.10;;;;;;5063617;28;20037;-36
2021/08/22 12:05:16;;;;;;;2.35;1.40;;;23.40;65.10;;;;;;5064047;28;20028;-36
2021/08/22 12:07:43;;;;;;;1.70;1.60;;;23.40;65.10;;;;;;5081463;28;20033;-36
2021/08/22 12:10:28;;;;;;;1.73;1.30;;;23.40;65.10;;;;;;5081204;28;20054;-36
2021/08/22 12:12:54;;;;;;;1.60;1.50;;;23.40;65.10;;;;;;5066565;28;20108;-36
2021/08/22 12:15:31;;;;;;;1.77;1.60;;;23.40;65.00;;;;;;5081753;28;20474;-36
2021/08/22 12:18:18;;;;;;;1.58;1.40;;;23.40;65.10;;;;;;5082068;28;20037;-37
2021/08/22 12:20:46;;;;;;;1.70;1.45;;;23.40;65.10;;;;;;5081410;28;20025;-36
2021/08/22 12:23:12;;;;;;;;;;;23.40;65.20;;;;;;5082369;28;20499;-36
2021/08/22 12:25:40;;;;;;;1.25;1.10;;;23.40;65.20;;;;;;5081887;28;19998;-37
2021/08/22 12:28:29;;;;;;;1.30;1.20;;;23.40;65.00;;;;;;5067363;28;20078;-36
2021/08/22 12:31:04;;;;;;;;;;;23.40;64.10;;;;;;5065313;28;20028;-38
2021/08/22 12:33:32;;;;;;;1.70;1.35;;;23.40;63.70;;;;;;5065255;28;19917;-36
2021/08/22 12:36:04;;;;;;;1.23;1.13;;;23.40;63.70;;;;;;5065420;28;20021;-36
2021/08/22 12:38:42;;;;;;;1.13;1.10;;;23.40;63.70;;;;;;5065080;28;20032;-36
2021/08/22 12:41:28;;;;;;;1.45;1.35;;;23.40;63.90;;;;;;5062212;28;20024;-36
2021/08/22 12:43:56;;;;;;;1.15;1.02;;;23.40;64.20;;;;;;5067171;28;20032;-36
2021/08/22 12:46:23;;;;;;;1.73;1.40;;;23.40;64.60;;;;;;5070445;28;20020;-36
2021/08/22 12:48:50;;;;;;;1.50;1.40;;;23.40;64.70;;;;;;5082949;28;20028;-36
2021/08/22 12:51:16;;;;;;;1.40;1.30;;;23.40;64.80;;;;;;5064937;28;20095;-36
2021/08/22 12:53:42;;;;;;;1.67;1.50;;;23.40;64.80;;;;;;5084954;28;20066;-36
2021/08/22 12:56:08;;;;;;;1.27;1.17;;;23.40;64.90;;;;;;5084926;28;20024;-36
2021/08/22 12:58:34;;;;;;;1.48;1.38;;;23.40;65.00;;;;;;5084853;28;20029;-36
2021/08/22 13:01:01;;;;;;;1.58;1.48;;;23.40;65.00;;;;;;5084784;28;21183;-36
2021/08/22 13:03:27;;;;;;;1.60;1.35;;;23.40;65.10;;;;;;5084829;28;20028;-37
2021/08/22 13:05:53;;;;;;;1.50;1.40;;;23.40;65.60;;;;;;5084741;28;20025;-36
2021/08/22 13:08:19;;;;;;;1.38;1.27;;;23.40;65.10;;;;;;5084677;28;20063;-36